the time You need

Acquapartita MTB

Acquapartita, Forlì-Cesena   Italy

domenica 23 aprile 2017

Percorsi

LUNGO - 28.0 Km

 

CORTO - 14.0 Km

Servizi

ADSCOSTPunti KS Ranking

Chip

Circuiti

Romagna Bike Cup

Ente

UISP

Info

CLASSIFICA

LUNGO - 28.0 Km

Pos Atleta Sesso Cat PosC Team Tempo Media RTime
Sq. PEDRONI ALESSANDRO M NC - - 00:16:23.55 102,54 00:16:23.55
1 BRAVACCINI MATTEO M M1 1 CC RACING 01:26:27.42 19,43 01:26:27.42
2 ACCORDI LUCA M ELMT 1 TEAM PASSION FAENTINA 01:26:34.66 19,41 01:26:31.16
3 FRANCIONI MARCO M ELMT 2 ASS. TEAM PENNAROSSA 01:27:03.66 19,30 01:27:02.36
4 PUGLISI DANIELE M ELMT 3 ASD BLACK ROAD 01:27:17.12 19,25 01:27:13.13
5 ZAMA LORENZO M M1 2 TEAM PASSION FAENTINA 01:28:01.74 19,09 01:27:58.54
6 CORSETTI NICOLA M M2 1 AVIS PRATOVECCHIO-ERREPI-LEE COUGAN 01:28:28.40 18,99 01:28:21.40
7 FABBRI CHRISTIAN M M3 1 TEAM PASSION FAENTINA 01:28:48.38 18,92 01:28:48.38
8 URBINATI LUCA M M1 3 ASDC VALLE DEL CONCA NORDIC WALKING 01:28:58.32 18,88 01:28:54.54
9 POGGIALI MARCO M M2 2 ASS. TEAM PENNAROSSA 01:29:32.64 18,76 01:29:27.14
10 FRANCIONI LUCA M M2 3 ASS. TEAM PENNAROSSA 01:29:40.89 18,74 01:29:35.69
11 BACCINI MARCO M M2 4 TEAM PASSION FAENTINA 01:29:42.39 18,73 01:29:42.39
12 BERTELLI LUCA M OPEN 1 HAIBIKE LAWLEY FACTORY TEAM 01:29:47.39 18,71 01:29:47.39
13 TERENZI ANDREA M OPEN 2 TEAM NOB SELLE ITALIA 01:29:57.13 18,68 01:29:53.13
14 CAPPELLI ALEX M ELMT 4 AVIS PRATOVECCHIO-ERREPI-LEE COUGAN 01:31:07.63 18,44 01:31:05.63
15 GALAMINI MAURIZIO M M5 1 BARACCA LUGO MTB 01:31:14.86 18,41 01:31:14.86
16 BOVINO MARIO M M4 1 TEAM NOB JOLLY WEAR 01:31:44.21 18,31 01:31:44.21
17 RENZI NICOLA M M4 2 PROBIKERS 01:32:17.36 18,20 01:32:08.08
18 RAFFAELLI SAMUELE M M2 5 ASD H3O RACE TEAM 01:32:24.10 18,18 01:32:21.21
19 RIGHI GIORGIO M M2 6 BAD SKULL ASD 01:32:37.75 18,14 01:32:24.05
20 BUSSI SIMONE M M2 7 AVIS PRATOVECCHIO-ERREPI-LEE COUGAN 01:32:44.10 18,12 01:32:37.37
21 FONTANELLI MATTEO M ELMT 5 TEAM PASSION FAENTINA 01:33:37.57 17,95 01:33:15.15
22 MACCAGLI ANDREA ENRICO M ELMT 6 SAN MARINO RACE TEAM 01:33:50.55 17,90 01:33:44.44
23 ROSTI SIMONE M M1 4 ASS. TEAM PENNAROSSA 01:34:11.24 17,84 01:34:06.24
24 GHETTI WILMER M M4 3 GS TORPADO SURFING SHOP SPORT PROMOTION 01:34:32.33 17,77 01:34:23.33
25 PELLEGRINO PARIDE M M4 4 TEAM TORPEDO BIKE 01:35:14.51 17,64 01:35:11.51
26 ASTOLFI OMAR M M3 2 ASD H3O RACE TEAM 01:35:15.53 17,64 01:34:51.53
27 CHIARINI LUCA M M2 8 TEAM PASSION FAENTINA 01:35:26.59 17,60 01:35:22.09
28 MONTI ANDREA M M4 5 ASD TOSCO-ROMAGNOLA 01:36:22.07 17,43 01:36:17.17
29 COLLINI FRANCESCO M M1 5 GS BULGARNO´ BIKE 2008 01:36:22.25 17,43 01:36:07.07
30 SAVINI MATTEO M M3 3 ROCK RACING 01:36:37.58 17,39 01:36:28.28
31 GUGLIELMI MATTEO M M4 6 TEAM BIKE COCIF.COM ASD 01:36:38.06 17,39 01:36:32.06
32 MANIGRASSO GIOVANNI M M4 7 ASD IMOLA BIKE 01:36:38.33 17,39 01:36:35.13
33 FIORINI FABIO M M5 2 KTM FORTI E LIBERI 01:36:53.57 17,34 01:36:48.17
34 CEREDI DANIELE M M2 9 TEAM ESSERE E MTBICIO 01:36:58.31 17,33 01:36:44.31
35 RIPA STEFANO M M2 10 ASDC VALLE DEL CONCA NORDIC WALKING 01:37:47.56 17,18 01:37:22.22
36 DELLABIANCIA MATTEO M ELMT 7 DMT RACING TEAM 01:37:58.98 17,15 01:37:49.98
37 MURATORI ERIVAN M M2 11 ASS. TEAM PENNAROSSA 01:38:37.31 17,04 01:38:35.35
38 TONVERONACHI FABIO M ELMT 8 ASD GS POPPI 01:38:45.30 17,01 01:38:26.10
39 GIANOTTI FEDERICO M M4 8 BAMBANA BIKE 01:38:46.81 17,01 01:38:37.81
40 CURCIO MARCO M M3 4 CC RACING 01:38:58.04 16,98 01:38:58.04
41 ROSSI MARIO M M5 3 ASD H3O RACE TEAM 01:38:59.21 16,97 01:38:34.34
42 GALLI MARIANO M M3 5 TEAM NOB JOLLY WEAR 01:39:03.68 16,96 01:38:48.38
43 CACCHIANI RICHARD M M3 6 ASD GS POPPI 01:39:20.80 16,91 01:38:55.80
44 VENTURINI MIRKO M M3 7 TEAM PASSION FAENTINA 01:39:45.05 16,84 01:39:38.05
45 CALISE MARCO M M7 1 ASCD VALLE DEL CONCA 01:39:45.80 16,84 01:39:41.30
46 RAGGINI ROBERTO M M5 4 SCORPION BIKE MTB 01:40:10.04 16,77 01:39:59.59
47 EUSEBI LORENZO M ELMT 9 PROBIKERS 01:40:10.30 16,77 01:40:03.03
48 RINALDI MATTIA M M1 6 SAN MARINO RACE TEAM 01:40:10.60 16,77 01:39:49.60
49 RICEPUTI LUCA M M2 12 TEAM ESSERE E MTBICIO 01:40:40.54 16,69 01:40:31.54
50 PIERANTONI SIMONE M M3 8 TEAM MONDOBICI TECNOPLAST 01:40:46.54 16,67 01:40:29.29
51 IAMMARINO GIANLUCA M M3 9 TEAM ESSERE E MTBICIO 01:41:28.68 16,56 01:41:14.14
52 GUIDI MIRCO M M3 10 SAN MARINO RACE TEAM 01:41:35.54 16,54 01:41:29.04
53 CAPECE MATTIA M M1 7 KTM FORTI E LIBERI 01:41:51.78 16,49 01:41:38.78
54 FABBRI DAVIDE M M3 11 ASD H3O RACE TEAM 01:41:52.02 16,49 01:41:28.28
55 BONFINI ROBERTO M M4 9 SAN MARINO RACE TEAM 01:41:52.30 16,49 01:41:44.30
56 ALESSANDRINI GUGLIELMO M M6 1 TEAM MONDOBICI TECNOPLAST 01:41:57.77 16,48 01:41:36.36
57 FABBRI ALBERTO M M3 12 BIKELAND TEAM BIKE 2003 01:42:00.52 16,47 01:41:54.52
58 MARTINI SIMONE M ELMT 10 ASD GS POPPI 01:42:01.94 16,47 01:41:33.94
59 BELLINI IVAN M M4 10 ASD BIKE INNOVATION SQUADRA CORSE 01:42:06.60 16,45 01:41:42.40
60 RINALDI ANDREA M ELMT 11 GRUPPO TNT 01:42:12.69 16,44 01:42:01.01
61 GARDINI EMANUELE M M3 13 GS BULGARNO´ BIKE 2008 01:42:31.95 16,39 01:42:16.95
62 FUSARI LEONARDO ALBERTO M M2 13 360 BIKE TEAM 01:42:45.52 16,35 01:42:14.02
63 PETRUCCIOLI ARNALDO M M6 2 ASD GS POPPI 01:42:57.71 16,32 01:42:31.71
64 FRESCHI ALESSANDRO M ELMT 12 GRUPPO TNT 01:43:04.52 16,30 01:42:53.53
65 BARTOLUCCI PATRIZIO M M5 5 ASD BLACK RIDERS 01:43:28.78 16,24 01:42:54.54
66 MAURO EMANUELE M ELMT 13 TEAM PASSION FAENTINA 01:43:29.52 16,23 01:43:17.42
67 QUADRELLI PAOLO M M6 3 SAN MARINO RACE TEAM 01:43:30.36 16,23 01:43:19.06
68 GARAGNANI LOREDANO M M6 4 VERNIABIKE ASD 01:43:34.77 16,22 01:43:29.07
69 CAVICCHI CRISTIAN M M4 11 POL. YOUNG LINE 01:43:40.26 16,21 01:43:17.17
70 CAVIOLI DANIELE M M2 14 ASD LE SALINE NATURA E SPORT 01:43:48.00 16,18 01:43:29.29
71 MAGALOTTI DAVIDE M M2 15 SPACCO ASD 01:43:55.51 16,17 01:43:40.51
72 CIABATTI GIAMPIERO M M5 6 TEAM BP MOTION ASD 01:44:01.76 16,15 01:43:29.26
73 MONTANARI MAURO M M2 16 TEAM PASSION FAENTINA 01:44:03.76 16,15 01:43:53.66
74 ROSSI ANDREA M M5 7 BARACCA LUGO MTB 01:44:06.25 16,14 01:43:56.05
75 CICOGNANI FABRIZIO M M1 8 180 BPM 01:44:08.27 16,13 01:43:54.54
76 CAVALLI ALVER M M3 14 ASD LE SALINE NATURA E SPORT 01:44:11.99 16,13 01:43:47.19
77 LODDI MICHAEL M ELMT 14 ASD GS POPPI 01:44:20.26 16,10 01:43:53.53
78 MAMBELLI MARINO M M7 2 ASD TEAM COMACO 01:44:46.75 16,04 01:44:40.25
79 DI PARDO MASSIMO M M2 17 ASD TEAM BIKE VALCONCA 01:44:48.44 16,03 01:44:20.44
80 GRILLI LUCA M M2 18 ASDC VALLE DEL CONCA NORDIC WALKING 01:44:49.65 16,03 01:44:28.28
81 MURATORI GIAMPAOLO M M5 8 CICLISTICA MERCATESE 01:45:29.00 15,93 01:44:55.55
82 LAMI FLAVIO M M6 5 SCORPION BIKE MTB 01:45:33.05 15,92 01:45:25.25
83 PRUNI PAOLO M M5 9 KTM FORTI E LIBERI 01:45:34.75 15,91 01:45:17.17
84 QUARANTINI DAVIDE M M4 12 ASD IMOLA BIKE 01:45:50.49 15,87 01:45:40.49
85 ZANIBONI ROBERTO M M6 6 ASD BIKE INNOVATION SQUADRA CORSE 01:46:11.74 15,82 01:45:50.34
86 LEARDINI GABRIELE M ELMT 15 ASD BLACK ROAD 01:46:17.75 15,81 01:45:42.25
87 CAPPELLI MICHELE M ELMT 16 PROBIKERS 01:46:32.24 15,77 01:46:24.24
88 BARTOLINI NICOLA M JUN 1 GRUPPO TNT 01:46:33.25 15,77 01:46:29.29
89 CAIBUGATTI GIANNI M M4 13 AVIS PRATOVECCHIO-ERREPI-LEE COUGAN 01:46:39.74 15,75 01:46:22.74
90 MALAVOLTA MANUEL M M1 9 BARACCA LUGO MTB 01:47:04.72 15,69 01:46:45.45
91 BALDAZZI ANDREA M M3 15 ASD BIKE INNOVATION SQUADRA CORSE 01:47:10.40 15,68 01:46:46.40
92 ZAFFERANI MICHELE M M2 19 SAN MARINO MTB TEAM 01:47:14.98 15,67 01:46:42.88
93 LEONI GERMANO M M5 10 TEAM PASSION FAENTINA 01:47:43.48 15,60 01:47:34.34
94 FERRIOLI DEVIS M M3 16 TEAM PASSION FAENTINA 01:47:43.73 15,60 01:47:30.03
95 PACCAZZOCCO LUCA M M1 10 ASD BIKERS RACING TEAM 01:47:59.47 15,56 01:47:19.19
96 SUCCI ALESSANDRO M ELMT 17 ROWA TEAM 01:48:16.12 15,52 01:47:39.39
97 COZZOLINO CLAUDIO M M3 17 ASD TEAM COMACO 01:48:18.72 15,51 01:48:00.22
98 BROCCOLI SANDRO M M5 11 TEAM MONDOBICI TECNOPLAST 01:48:20.78 15,51 01:48:12.18
99 VALLICELLI MIRKO M M2 20 TEAM PASSION FAENTINA 01:48:32.48 15,48 01:48:02.28
100 SANTI DANILO M M4 14 TEAM BIKE 2000 ASD 01:48:35.73 15,47 01:48:18.18
101 NORCINI ENRICO M M5 12 ASD GS POPPI 01:48:36.40 15,47 01:48:13.13
102 STROCCHI MATTIA M M2 21 TEAM NOB JOLLY WEAR 01:48:36.42 15,47 01:48:21.22
103 PISELLI ALEX M M1 11 SAN MARINO RACE TEAM 01:48:49.22 15,44 01:48:28.28
104 VALBONESI CLAUDIO M M4 15 GRUPPO TNT 01:48:50.97 15,44 01:48:32.47
105 GOBBI STEFANO M M1 12 ASDC VALLE DEL CONCA NORDIC WALKING 01:48:52.22 15,43 01:48:26.26
106 BECCI MORENO M M7 3 AVIS PRATOVECCHIO-ERREPI-LEE COUGAN 01:48:53.97 15,43 01:48:38.67
107 MONTALTI SILVIO M M4 16 BAD SKULL ASD 01:48:57.23 15,42 01:48:48.48
108 VALDIFIORI MIRCO M M3 18 180 BPM 01:49:09.22 15,39 01:48:51.12
109 SAPORETTI PATRICK M ELMT 18 VITAMINA TEAM 01:49:31.72 15,34 01:49:10.52
110 SALVATORI STEFANO M M6 7 KTM FORTI E LIBERI 01:49:37.65 15,33 01:49:34.65
111 GAVANELLI LORENZO M M2 22 POL. YOUNG LINE 01:50:02.71 15,27 01:49:51.71
112 TORTOLANI UGO M M4 17 POL. YOUNG LINE 01:50:32.96 15,20 01:50:13.16
113 MAGRINI STEFANO M M6 8 TEAM PASSION FAENTINA 01:50:34.46 15,19 01:50:12.16
114 TASSI GIANLUCA M M4 18 TEAM K-ONE ASD 01:50:35.65 15,19 01:49:56.45
115 MUCCINI FEDERICO M M4 19 PEPPERBIKE TEAM 01:50:42.71 15,18 01:50:11.41
116 GAVIANI FILIPPO M M1 13 BAD SKULL ASD 01:50:50.45 15,16 01:50:28.45
117 BONAVITA ILARIO M M5 13 SPACCO ASD 01:51:09.20 15,11 01:51:04.04
118 PIOGGIA LUCA M M3 19 POL. YOUNG LINE 01:51:12.35 15,11 01:50:52.52
119 PODESCHI ROBERTO M M4 20 SAN MARINO RACE TEAM 01:51:23.44 15,08 01:51:12.12
120 PARA MASSIMO M M5 14 COMERO BIKE 01:51:26.95 15,08 01:51:15.95
121 PEDROSI CRISTIAN M M3 20 ASD BLACK ROAD 01:52:03.66 14,99 01:51:30.30
122 CASADEI MARCO M M4 21 ROWA TEAM 01:52:09.45 14,98 01:51:52.25
123 MIGANI DENIS M M4 22 ASCD VALLE DEL CONCA 01:52:12.69 14,97 01:51:46.39
124 ANTINORI MARCO M M3 21 SAN MARINO RACE TEAM 01:52:23.93 14,95 01:52:09.23
125 SERCECCHI ANDREA M M3 22 ASD IMOLA BIKE 01:52:32.26 14,93 01:51:52.26
126 PRATELLI DAVIDE M M3 23 CICLO TEAM 2001 GABICCE MARE 01:52:34.89 14,92 01:52:06.89
127 CASTELLARI VALERIO M M5 15 ASD LR BIKE TEAM 01:52:35.69 14,92 01:52:23.69
128 PETRUCCIOLI MONICA F MW1 1 ASD GS POPPI 01:52:36.19 14,92 01:52:13.19
129 MAZZOLI LEONARDO M M3 24 COMERO BIKE 01:52:37.93 14,92 01:52:17.43
130 BIANCHINI GIORGIO M M6 9 BAMBANA BIKE 01:52:51.93 14,89 01:52:48.43
131 GRAZIANI MARCO M M3 25 ASD GS POPPI 01:52:52.69 14,88 01:52:29.69
132 FABBRI FABIO M M6 10 180 BPM 01:52:53.69 14,88 01:52:39.69
133 TAGLIANI MATTEO M M2 23 ASD BICICULT 01:53:17.43 14,83 01:53:06.43
134 NERI FABIO M M5 16 ASD TOSCO-ROMAGNOLA 01:53:24.78 14,81 01:53:13.68
135 CASTELLUCCI STEFANO M M4 23 180 BPM 01:53:26.93 14,81 01:53:11.13
136 ALTINI ANDREA M M2 24 KTM FORTI E LIBERI 01:53:28.43 14,81 01:53:11.13
137 PINI GIANMARCO M JUN 2 PROBIKERS 01:53:29.85 14,80 01:53:24.85
138 ROSSI FRANCESCO M ELMT 19 MTB CESENA 01:53:33.91 14,80 01:53:01.51
139 GUERRA MICHELE M M4 24 BARACCA LUGO MTB 01:53:34.31 14,79 01:53:03.31
140 GREGORI ANTONIO M M6 11 COMERO BIKE 01:53:39.90 14,78 01:53:12.10
141 MAGALOTTI YURI M M4 25 GS BULGARNO´ BIKE 2008 01:53:39.91 14,78 01:53:21.41
142 BRUNELLI ENRICO M M3 26 GRUPPO TNT 01:53:39.93 14,78 01:53:20.93
143 TAMPELLINI MATTEO M M3 27 180 BPM 01:53:46.43 14,77 01:53:14.14
144 ANGIOLI ELVIS M M1 14 ASD IMOLA BIKE 01:53:50.68 14,76 01:53:10.10
145 BRIZZI GIULIANO M M4 26 ASD VALMARACING TEAM 01:54:01.68 14,73 01:53:39.39
146 MANZONI RICCARDO M ELMT 20 ASD SHARK RACING TEAM 01:54:06.76 14,72 01:53:27.76
147 CARAVITA GIORGIO M M3 28 TEAM PASSION FAENTINA 01:54:33.67 14,67 01:54:20.20
148 DOS SANTOS FABIO M M1 15 ASD TEAM COMACO 01:54:37.38 14,66 01:54:04.38
149 BABINI FABIO M M3 29 TEAM PASSION FAENTINA 01:54:41.85 14,65 01:54:10.85
150 TONTI ANDREA M JUN 3 ASD LE SALINE NATURA E SPORT 01:54:42.67 14,65 01:54:37.67
151 CASTALDI PAOLO M M4 27 TEAM BIKE COCIF.COM ASD 01:54:43.17 14,64 01:54:22.22
152 AMADASI ENRICO M M7 4 BAMBANA BIKE 01:54:49.55 14,63 01:54:24.05
153 FUSAI FERDINANDO M M4 28 GRUPPO TNT 01:54:53.92 14,62 01:54:43.32
154 SILVANI ANDREA M M1 16 COMERO BIKE 01:55:00.44 14,61 01:54:43.14
155 SASDELLI MICHELE M M4 29 BAMBANA BIKE 01:55:04.36 14,60 01:54:36.36
156 RIGHETTI PIETRO M M7 5 BAMBANA BIKE 01:55:10.16 14,59 01:54:42.16
157 CAMPANINI GIANNI M M6 12 CICLI NERI TEAM 01:55:54.92 14,50 01:55:37.72
158 TANI MARTIN M JUN 4 GRAVITY TEAM FRANCY 01:55:58.91 14,49 01:55:54.81
159 ZACCARELLI GIUSEPPE M M4 30 TEAM PASSION FAENTINA 01:55:59.32 14,48 01:55:32.32
160 CORZANI ALESSANDRO M M4 31 COMERO BIKE 01:55:59.91 14,48 01:55:30.71
161 CESARETTI SIMONE M M1 17 ASD VALMARACING TEAM 01:56:00.66 14,48 01:55:24.26
162 MASOTTI YURI M M2 25 TEAM PASSION FAENTINA 01:56:04.59 14,47 01:55:34.09
163 GAMBELLA DAVID M M4 32 ASD BIKERS RACING TEAM 01:56:05.66 14,47 01:55:24.24
164 CONTI FABIO M ELMT 21 AS TARTANA BIKE 01:56:06.16 14,47 01:55:35.35
165 FABBRI MAURO M M5 17 TEAM BIKE COCIF.COM ASD 01:56:43.65 14,39 01:56:32.15
166 DI MATTEO CRISTIAN M M3 30 CICLI NERI TEAM 01:56:49.61 14,38 01:56:37.31
167 FANTINI MASSIMILIANO M M4 33 TEAM K-ONE ASD 01:56:53.67 14,37 01:56:37.17
168 SUCCI MATTEO M ELMT 22 PEPPERBIKE TEAM 01:57:11.90 14,34 01:56:51.90
169 AGNOLETTI MARIO M M3 31 UISP RAVENNA 01:57:17.39 14,32 01:56:41.41
170 GATTA ALESSANDRO M M1 18 GRUPPO TNT 01:57:50.40 14,26 01:57:08.08
171 RUGGIERO BRUNO M M6 13 TEAM K-ONE ASD 01:57:54.90 14,25 01:57:43.00
172 SELVA FEDERICO M M2 26 SAN MARINO MTB TEAM 01:57:55.89 14,25 01:57:37.69
173 FABIANI FABIO M M4 34 SPACCO ASD 01:58:07.64 14,22 01:57:46.34
174 BISSIONI LORENZO M M7 6 TEAM TORPEDO BIKE 01:58:17.14 14,20 01:58:10.10
175 FIORINI MICHELE M JUN 5 GRAVITY TEAM FRANCY 01:58:25.64 14,19 01:58:23.23
176 GAMBERINI MARCO M M1 19 ASD BIKE INNOVATION SQUADRA CORSE 01:58:28.64 14,18 01:57:53.04
177 BUDELACCI MIRCO M M3 32 BAD SKULL ASD 01:58:54.13 14,13 01:58:27.27
178 BARTOLINI VALERIA F MW2 1 TEAM TORPEDO BIKE 01:59:08.89 14,10 01:59:05.09
179 GORRIERI RICCARDO M M5 18 ASD VALMARACING TEAM 01:59:31.87 14,06 01:59:11.07
180 COLLINI LUCA M M1 20 GS BULGARNO´ BIKE 2008 02:00:04.63 13,99 01:59:36.13
181 BOLLINI STEFANO M M2 27 SAN MARINO MTB TEAM 02:00:05.62 13,99 01:59:32.62
182 ACCIAI MAURIZIO M M6 14 AVIS PRATOVECCHIO-ERREPI-LEE COUGAN 02:00:27.12 13,95 02:00:19.19
183 PAZZINI GERARDO M M6 15 ASD POLISPORTIVA COSMOS 02:00:29.63 13,94 01:59:53.53
184 BANDOLIERI SILVER M M2 28 TEAM NOB JOLLY WEAR 02:00:44.62 13,91 02:00:26.42
185 CESARINI FRANCESCO M M4 35 ASD VALMARACING TEAM 02:00:56.87 13,89 02:00:32.37
186 CONFICONI SAMUELE M M3 33 KTM FORTI E LIBERI 02:01:20.11 13,85 02:00:50.11
187 MASSANELLI MATTEO M M1 21 ASD VALMARACING TEAM 02:01:22.11 13,84 02:00:47.47
188 RAFFINI LUCA M M2 29 INDIVIDUALE 02:01:22.36 13,84 02:00:52.36
189 EUSEBI MAURO M M6 16 ASD TEAM BIKE VALCONCA 02:01:41.11 13,81 02:01:09.11
190 MARTINETTI FORTUNATO M M4 36 COMERO BIKE 02:01:53.61 13,78 02:01:27.11
191 CONSANI MATTEO M ELMT 23 GS BULGARNO´ BIKE 2008 02:02:09.61 13,75 02:01:42.11
192 SIROTTI MATTEO M M4 37 VENTURI ADVENTURE TEAM 02:02:27.85 13,72 02:02:01.65
193 CANUTI ALBERTO M M5 19 ROWA TEAM 02:02:36.80 13,70 02:02:18.00
194 MONDUZZI MORENO M M5 20 ASD SACMI 02:02:43.86 13,69 02:02:14.06
195 LOMBARDI TIZIANO M M7 7 GRUPPO TNT 02:03:04.35 13,65 02:02:50.50
196 TARDINI MICHELE M M2 30 BAD SKULL ASD 02:03:17.10 13,63 02:02:34.10
197 FIAMMENGHI FLAMIGNI ALBERTO M M4 38 AS TARTANA BIKE 02:03:17.83 13,63 02:02:39.03
198 FAGGIOLINI CRISTIAN M M3 34 AS TARTANA BIKE 02:03:28.52 13,61 02:02:48.52
199 FERRI MARCO M M7 8 TEAM PASSION FAENTINA 02:03:33.39 13,60 02:03:08.19
200 BUSSI WALTER M M7 9 COMERO BIKE 02:03:35.35 13,59 02:03:04.04
201 ULIVI ANDREA M M4 39 UISP FORLI´ 02:03:58.35 13,55 02:03:18.35
202 MOLARI MATTIA M M2 31 SCORPION BIKE MTB 02:04:15.58 13,52 02:03:51.08
203 FORNASIERO MASSIMILIANO M M3 35 GS TORPADO SURFING SHOP SPORT PROMOTION 02:04:49.03 13,46 02:04:10.10
204 NANNI LUCA M ELMT 24 HOBBY BIKE CLUB MTB 02:05:30.09 13,39 02:05:04.04
205 RONCASSAGLIA GABRIELE M M4 40 BAMBANA BIKE 02:06:31.58 13,28 02:05:58.28
206 FABBRI MASSIMO M M4 41 TEAM BIKE COCIF.COM ASD 02:06:37.33 13,27 02:06:25.25
207 SEMIANCHUK HEORHI M ELMT 25 ASD SAMBI TEAM 02:06:44.02 13,26 02:06:04.02
208 CHIARADIA TULLIO M M3 36 180 BPM 02:07:00.07 13,23 02:06:26.07
209 BEST TOM RICHARD M M6 17 ASD ONLYOFF DUE RUOTE 02:07:02.32 13,22 02:07:00.00
210 MANTOVANI LUCA M M5 21 BAMBANA BIKE 02:07:13.56 13,21 02:06:39.06
211 TONELLI ROBERTO M M7 10 COMERO BIKE 02:07:16.06 13,20 02:06:47.47
212 PADOVANI DAVIDE M M4 42 GS BULGARNO´ BIKE 2008 02:07:34.81 13,17 02:06:55.01
213 FABBRI NICOLA M ELMT 26 SPACCO ASD 02:07:39.18 13,16 02:07:15.15
214 PAOLINI GERARDO M M6 18 GRUPPO TNT 02:08:00.47 13,13 02:07:46.17
215 MINIELLO LEO M M2 32 TEAM BIKE COCIF.COM ASD 02:08:08.06 13,11 02:07:31.31
216 TAROZZI ROBERTO M M4 43 TEAM PASSION FAENTINA 02:08:09.55 13,11 02:07:59.05
217 FERRI MAURO M M7 11 BAMBANA BIKE 02:08:57.79 13,03 02:08:26.79
218 GENTILINI RAFFAELE M M3 37 BARACCA LUGO MTB 02:09:00.71 13,02 02:08:53.11
219 MACCHEROZZI MARTA F MW2 2 CICLISTICA MERCATESE 02:09:44.04 12,95 02:09:08.08
220 CASADEI ALESSANDRO M M6 19 PEPPERBIKE TEAM 02:11:30.53 12,78 02:10:57.53
221 BEDETTI MAURIZIO M M3 38 VISERBA BIKE TEAM 02:11:38.78 12,76 02:11:14.08
222 MARTINI ALESSANDRO M M4 44 ASD BIKE INNOVATION SQUADRA CORSE 02:12:41.27 12,66 02:12:11.17
223 PERINI DAVID M M4 45 PEPPERBIKE TEAM 02:12:41.76 12,66 02:12:09.76
224 PAGGETTI ELEONORA F MW1 2 ASD GS POPPI 02:12:55.27 12,64 02:12:27.27
225 PAVANI BARBARA F MW2 3 ASD IMOLA BIKE 02:13:02.02 12,63 02:12:41.41
226 LUCCHI MASSIMO M M5 22 GS TORPADO SURFING SHOP SPORT PROMOTION 02:13:14.27 12,61 02:12:39.39
227 VALBONESI EMANUELE M M3 39 180 BPM 02:14:41.50 12,47 02:14:07.50
228 ANCARANI GIULIO M M6 20 180 BPM 02:14:45.25 12,47 02:14:08.08
229 GALLINUCCI ALESSANDRO M ELMT 27 VENTURI ADVENTURE TEAM 02:15:24.20 12,41 02:14:43.43
230 SINAGRA IVAN M M4 46 GS BULGARNO´ BIKE 2008 02:16:07.19 12,34 02:15:26.09
231 MORETTI TIBERIO M M6 21 UISP FORLI´ 02:16:16.74 12,33 02:15:35.04
232 PUGLISI ALESSANDRO M M1 22 ASD BLACK ROAD 02:16:22.73 12,32 02:15:43.53
233 AMADUCCI ROBERTO M M6 22 180 BPM 02:17:19.77 12,23 02:16:46.17
234 GOLFERA FABRIZIO M M6 23 TEAM PASSION FAENTINA 02:17:24.77 12,23 02:16:57.47
235 CECCOLI TONINO M M6 24 SAN MARINO RACE TEAM 02:17:46.77 12,19 02:17:08.77
236 COLLINI ANGELO M M3 40 VENTURI ADVENTURE TEAM 02:17:52.70 12,19 02:17:22.20
237 PARENTELLI NICOLA M ELMT 28 GS BULGARNO´ BIKE 2008 02:19:40.38 12,03 02:19:15.08
238 MESSINA GIUSEPPE M M6 25 BAMBANA BIKE 02:20:28.99 11,96 02:19:54.69
239 CHILLO TANIA F MW2 4 ASD IMOLA BIKE 02:20:47.50 11,93 02:20:43.20
240 PELLEGRINI MARCO M M7 12 BAMBANA BIKE 02:21:41.24 11,86 02:21:01.01
241 RAVAIOLI ROBERTO M M5 23 180 BPM 02:21:48.23 11,85 02:21:10.10
242 DOTTI LUCA M M5 24 UISP PROV.LE MODENA 02:22:15.23 11,81 02:21:32.32
243 CAVULLA ANNARITA F MW2 5 ASD IMOLA BIKE 02:22:39.46 11,78 02:22:19.19
244 MARTINI MATTEO M ELMT 29 VENTURI ADVENTURE TEAM 02:22:43.97 11,77 02:22:17.27
245 BARTOLONI GIANNI M M5 25 SAN MARINO MTB TEAM 02:23:00.72 11,75 02:22:45.02
246 TOSCHI BENEDETTA F MW1 3 POL. YOUNG LINE 02:26:12.69 11,49 02:25:49.49
247 COLOMBO ROBERTO M M5 26 BARACCA LUGO MTB 02:26:12.69 11,49 02:25:49.49
248 MORDENTI LUCA M ELMT 30 AS TARTANA BIKE 02:27:49.34 11,37 02:27:04.34
249 BACCI EZIO M M4 47 UISP TERRITORIALE 02:28:23.20 11,32 02:27:42.42
250 MORDENTI FERNANDO M M6 26 ASD TEAM COMACO 02:32:47.89 11,00 02:32:11.39
251 VEGGETTI ALBERTO M M4 48 MTB ADVENTURE BOLOGNA TEAM 02:32:49.89 10,99 02:32:07.59
252 GAGLIANO CLARA F MW2 6 BAMBANA BIKE 02:32:54.64 10,99 02:32:19.14
253 MANDOLESI MATTEO M JUN 6 ASD LE SALINE NATURA E SPORT 02:37:25.09 10,67 02:37:19.19
254 MORRI ALESSIA F MW1 4 ASD LE SALINE NATURA E SPORT 02:37:25.09 10,67 02:36:53.09
255 BOLLINI ALESSANDRO M M2 33 TEAM COSMOS 02:41:01.27 10,43 02:40:24.24
256 BARZANTI ENRICO M ELMT 31 AS TARTANA BIKE 02:42:41.55 10,33 02:41:57.57
257 GARDINI ALESSANDRO M M3 41 SAN MARCO 02:44:00.05 10,24 02:43:22.05
258 MOSCONI MANUEL M ELMT 32 UISP FORLI CESENA 02:45:03.54 10,18 02:44:33.33
259 SELVA SIMONA F MW2 7 ASD SBUBBIKERS 02:46:24.27 10,10 02:45:41.27
260 BACCINI DANIEL M M2 34 AS TARTANA BIKE 02:46:51.73 10,07 02:46:06.73
261 CORTINI DONATELLA F MW2 8 TEAM PASSION FAENTINA 02:51:29.97 9,80 02:50:50.17
262 DE MARCO ANTONIO M M2 35 ASD BORELLO CYCLING TEAM 02:55:05.70 9,60 02:54:28.20
DNF BABINI GIOVANNI M M6 - TEAM PASSION FAENTINA - - -
DNF BUCCI MATTIA M ELMT - GRUPPO TNT - - -
DNF CAMPITELLI MATTIA M M2 - GRUPPO TNT - - -
DNF CAVINA GIAMBATTISTA M M5 - ASD IMOLA BIKE - - -
DNF FABBRI CLAUDIO M M2 - TEAM PASSION FAENTINA - - -
DNF GARAVINI DAVIDE M M5 - 180 BPM - - -
DNF MARTINI GIANCARLO M M3 - BARACCA LUGO MTB - - -
DNF MARZOLA ANDREA M M3 - POL. PONTE NUOVO ASD - - -
DNF NANNETTI ALBERTO M M3 - 180 BPM - - -
DNF PANCISI GABRIELE M M5 - GRUPPO TNT - - -
DNF PRADERA MAURO M M2 - ASD VALMARACING TEAM - - -
DNF QUERZOLA FRANCESCA F MW1 - ASD IMOLA BIKE - - -
DNF RANOCCHINI MICHAEL M ELMT - ASD VALMARACING TEAM - - -
DNF SAMORI´ ENRICO M ELMT - TEAM PASSION FAENTINA - - -
DNF TINI STEFANO M M2 - VC DEL GARDA - - -

CORTO - 14.0 Km

Pos Atleta Sesso Cat PosC Team Tempo Media RTime
1 PENSERINI ELIA M ALL 1 ASD TEAM BIKE VALCONCA 00:59:52.64 14,03 00:59:52.64
2 PASOLINI DANIELE M ALL 2 ASD LE SALINE NATURA E SPORT 00:59:55.89 14,02 00:59:55.89
3 MONTI MATTEO M ES 1 ASD LE SALINE NATURA E SPORT 01:08:37.99 12,24 01:08:37.99
4 FERRI GABRIELE M ES 2 ASD LE SALINE NATURA E SPORT 01:12:06.03 11,65 01:12:06.03